• Join FlightAware (Why Join?)
  • Login
  • US Flag 
07:09PM EDT


 

Airport Tracker/Info


-or-


 

Live Flight TrackerFlight Track Log ✈ UPS300 ✈ 31-Jan-2014 ✈ KAUS - MMMY / MTY

Flight Track Log - Related Links

Times and Time Zones

All times are in EST time to prevent confusion due to time zone crossing. See the UPS300 flight status page for this flight to view local times or setup timezone preferences in your user account.

Time Position Orientation Groundspeed Altitude Reporting Facility
EST Latitude Longitude Course Direction KTS MPH feet Rate Location/Type
08:09AM 30.1644 -97.6862 192° South 136 157 3,500  Level FlightAware ADS-B
08:09AM 30.1628 -97.6873 211° Southwest 137 158 3,600 1,680 Climbing FlightAware ADS-B
08:09AM 30.1609 -97.6891 219° Southwest 141 162 3,700 1,500 Climbing FlightAware ADS-B
08:09AM 30.1592 -97.6916 232° Southwest 151 174 3,800 1,320 Climbing FlightAware ADS-B
08:09AM 30.1575 -97.6954 243° Southwest 160 184 3,900 1,380 Climbing FlightAware ADS-B
08:09AM 30.1527 -97.7084 247° West 186 214 4,300 1,500 Climbing FlightAware ADS-B
08:09AM 30.1484 -97.7200 247° West 204 235 4,600 1,500 Climbing FlightAware ADS-B
08:10AM 30.1414 -97.7367 244° Southwest 233 268 5,000 1,860 Climbing FlightAware ADS-B
08:10AM 30.1334 -97.7557 244° Southwest 256 295 5,600 2,580 Climbing FlightAware ADS-B
08:10AM 30.1259 -97.7734 244° Southwest 267 307 6,300 3,000 Climbing FlightAware ADS-B
08:10AM 30.1174 -97.7935 244° Southwest 277 319 7,100 3,480 Climbing FlightAware ADS-B
08:11AM 30.1085 -97.8143 244° Southwest 279 321 8,100 3,960 Climbing FlightAware ADS-B
08:11AM 30.0998 -97.8344 243° Southwest 278 320 9,100 4,020 Climbing FlightAware ADS-B
08:11AM 30.0925 -97.8516 244° Southwest 277 319 10,000 2,580 Climbing FlightAware ADS-B
08:12AM 30.0750 -97.8948 245° Southwest 315 362 11,000 1,800 Climbing FlightAware ADS-B
08:12AM 30.0604 -97.9307 245° Southwest 343 395 11,600 1,800 Climbing FlightAware ADS-B
08:12AM 30.0540 -97.9438 241° Southwest 348 400 11,900 1,380 Climbing FlightAware ADS-B
08:12AM 30.0462 -97.9571 236° Southwest 361 415 12,000 300 Climbing FlightAware ADS-B
08:13AM 30.0128 -98.0007 229° Southwest 375 432 12,100 1,320 Climbing FlightAware ADS-B
08:13AM 29.9768 -98.0438 226° Southwest 375 432 13,300 1,860 Climbing FlightAware ADS-B
08:14AM 29.9399 -98.0886 226° Southwest 386 444 14,000 1,620 Climbing FlightAware ADS-B
08:14AM 29.9031 -98.1343 227° Southwest 383 441 15,000 1,440 Climbing FlightAware ADS-B
08:15AM 29.8659 -98.1812 228° Southwest 391 450 15,500 1,860 Climbing FlightAware ADS-B
08:15AM 29.8290 -98.2289 228° Southwest 398 458 16,900 2,700 Climbing FlightAware ADS-B
08:16AM 29.7912 -98.2772 228° Southwest 404 465 18,300 2,700 Climbing FlightAware ADS-B
08:16AM 29.7522 -98.3262 227° Southwest 409 471 19,700 2,580 Climbing FlightAware ADS-B
08:17AM 29.7045 -98.3856 227° Southwest 414 476 21,200 2,400 Climbing FlightAware ADS-B
08:17AM 29.6736 -98.4191 223° Southwest 422 486 22,100 2,220 Climbing FlightAware ADS-B
08:18AM 29.6330 -98.4552 218° Southwest 428 493 23,000 2,040 Climbing FlightAware ADS-B
08:18AM 29.5987 -98.4804 213° Southwest 435 501 23,700 1,980 Climbing FlightAware ADS-B
08:18AM 29.5540 -98.5070 207° Southwest 444 511 24,500 1,740 Climbing FlightAware ADS-B
08:19AM 29.4970 -98.5363 204° Southwest 453 521 25,300 2,040 Climbing FlightAware ADS-B
08:19AM 29.4375 -98.5669 204° Southwest 452 520 26,600 2,640 Climbing FlightAware ADS-B
08:20AM 29.3805 -98.5960 204° Southwest 442 509 28,000 2,700 Climbing FlightAware ADS-B
08:20AM 29.3215 -98.6261 204° Southwest 437 503 29,400 2,220 Climbing FlightAware ADS-B
08:21AM 29.2354 -98.6699 204° Southwest 435 501 31,000 660 Climbing FlightAware ADS-B
08:24AM 28.9037 -98.8377 204° Southwest 437 503 32,000 240 Climbing FlightAware ADS-B (KHOU)
08:25AM 28.8247 -98.8775 204° Southwest 435 501 32,000  Level Houston Center
08:26AM 28.7056 -98.9375 204° Southwest 435 501 32,000  Level Houston Center
08:32AM 28.0972 -99.2412 204° Southwest 438 504 32,000  Level FlightAware ADS-B (KHOU)
08:32AM 28.0684 -99.2554 204° Southwest 437 503 32,000  Level FlightAware ADS-B (KHOU)
08:33AM 27.9231 -99.3272 204° Southwest 434 499 32,000  Level Houston Center
08:34AM 27.8131 -99.3817 204° Southwest 435 501 32,000 -60 Level Houston Center
08:35AM 27.7028 -99.4358 204° Southwest 437 503 31,900  Descending Houston Center
08:36AM 27.5697 -99.5014 204° Southwest 437 503 32,000  Climbing Houston Center
08:37AM 27.4586 -99.5553 203° Southwest 437 503 32,000  Level Houston Center
08:39AM 27.3460 -99.5903 197° South  Level FlightAware Approximate
08:46AM 26.6657 -99.8060 197° South  Level FlightAware Approximate
08:47AM 26.5689 -99.8382 197° South  Level FlightAware Approximate
08:48AM 26.4716 -99.8685 195° South  Level FlightAware Approximate
08:49AM 26.3740 -99.8978 195° South  Level FlightAware Approximate
08:50AM 26.2767 -99.9277 195° South  Level FlightAware Approximate
08:51AM 26.1793 -99.9577 195° South  Level FlightAware Approximate
08:52AM 26.0824 -99.9892 197° South  Level FlightAware Approximate
08:53AM 25.9858 -100.0223 200° South  Level FlightAware Approximate
08:54AM 25.8896 -100.0554 190° South  Level FlightAware Approximate
08:55AM 25.7934 -100.0866 204° Southwest  Level FlightAware Approximate
08:56AM 25.7667 -100.1000 North  Level FlightAware Approximate
08:57AM 25.7785 -100.1069 North  Level Estimated